Time;durP1;ratioP1;P1;durP2;ratioP2;P2;SDS_P1;SDS_P2;PMS_P1;PMS_P2;Temp;Humidity;BMP_temperature;BMP_pressure;BME280_temperature;BME280_humidity;BME280_pressure;Samples;Min_cycle;Max_cycle;Signal;HPM_P1;HPM_P2
2022/11/20 00:02:12;;;;;;;1.25;0.82;;;;;;;-5.88;83.91;101539.97;10610443;28;20465;-76
2022/11/20 00:07:15;;;;;;;2.72;1.20;;;;;;;-5.85;84.18;101528.13;10606785;28;20797;-77
2022/11/20 00:12:17;;;;;;;2.55;1.10;;;;;;;-5.80;84.33;101553.41;10599143;28;20039;-77
2022/11/20 00:17:19;;;;;;;2.22;0.82;;;;;;;-5.74;83.79;101541.25;10612229;28;20059;-76
2022/11/20 00:22:21;;;;;;;2.00;1.00;;;;;;;-5.70;83.74;101539.13;10599886;28;20063;-83
2022/11/20 00:27:24;;;;;;;0.82;0.63;;;;;;;-5.69;83.22;101536.31;10581329;28;20055;-76
2022/11/20 00:32:26;;;;;;;2.55;1.70;;;;;;;-5.62;83.21;101533.84;10573845;28;20039;-75
2022/11/20 00:37:28;;;;;;;1.52;1.02;;;;;;;-5.65;82.68;101523.47;10610991;28;20044;-76
2022/11/20 00:42:32;;;;;;;2.33;1.38;;;;;;;-5.61;83.10;101540.88;10606722;28;20035;-76
2022/11/20 00:47:34;;;;;;;1.77;1.30;;;;;;;-5.63;82.62;101519.63;10604240;28;20048;-76
2022/11/20 00:52:37;;;;;;;3.33;1.10;;;;;;;-5.58;82.96;101503.13;10632953;27;20039;-76
2022/11/20 00:57:39;;;;;;;2.78;1.00;;;;;;;-5.53;82.68;101506.19;10581798;28;20047;-76
2022/11/20 01:02:41;;;;;;;1.45;1.35;;;;;;;-5.56;83.18;101506.47;10594606;28;20039;-76
2022/11/20 01:07:43;;;;;;;2.85;1.60;;;;;;;-5.58;83.10;101501.28;10610253;27;20036;-76
2022/11/20 01:13:36;;;;;;;2.15;1.20;;;;;;;-5.59;83.08;101504.13;10631808;27;20043;-75
2022/11/20 01:18:07;;;;;;;2.13;1.50;;;;;;;-5.59;82.92;101490.75;10575939;28;20418;-75
2022/11/20 01:23:10;;;;;;;2.60;1.40;;;;;;;-5.61;83.42;101488.22;10613896;28;20039;-75
2022/11/20 01:28:12;;;;;;;2.42;1.05;;;;;;;-5.61;nan;101488.22;10623646;27;20048;-75
2022/11/20 01:33:14;;;;;;;2.83;1.40;;;;;;;-5.64;83.26;101479.69;10595970;27;20580;-76
2022/11/20 01:38:17;;;;;;;2.10;1.67;;;;;;;-5.63;82.88;101482.19;10578746;28;20048;-76
2022/11/20 01:43:20;;;;;;;2.35;1.50;;;;;;;-5.66;82.71;101479.00;10567496;27;20418;-76
2022/11/20 01:48:24;;;;;;;2.05;1.08;;;;;;;-5.65;82.27;101475.34;10627131;27;20031;-76
2022/11/20 01:53:31;;;;;;;2.25;1.40;;;;;;;-5.65;82.68;101470.00;10607741;27;20501;-76
2022/11/20 01:58:36;;;;;;;3.00;1.60;;;;;;;-5.63;82.50;101473.34;10593769;27;20048;-75
2022/11/20 02:03:39;;;;;;;3.10;1.38;;;;;;;-5.63;82.86;101462.66;10592365;28;20444;-75
2022/11/20 02:08:41;;;;;;;2.38;1.70;;;;;;;-5.61;82.49;101474.03;10583311;28;20414;-77
2022/11/20 02:13:44;;;;;;;2.35;1.40;;;;;;;-5.65;82.49;101464.66;10577841;28;20044;-77
2022/11/20 02:18:47;;;;;;;2.42;1.40;;;;;;;-5.65;82.51;101491.38;10588912;28;20414;-76
2022/11/20 02:24:00;;;;;;;2.65;1.50;;;;;;;-5.66;82.74;101458.47;10571894;28;20043;-75
2022/11/20 02:29:03;;;;;;;2.95;1.80;;;;;;;-5.67;82.65;101458.63;10603111;28;20519;-76
2022/11/20 02:34:05;;;;;;;3.15;1.63;;;;;;;-5.65;83.12;101467.31;10594293;28;20043;-76
2022/11/20 02:39:08;;;;;;;4.68;2.00;;;;;;;-5.66;82.83;101473.66;10600733;28;20051;-76
2022/11/20 02:44:11;;;;;;;1.85;1.42;;;;;;;-5.66;83.67;101454.94;10588326;28;20414;-74
2022/11/20 02:49:13;;;;;;;2.75;2.28;;;;;;;-5.65;82.89;101453.94;10594221;28;20051;-76
2022/11/20 02:54:15;;;;;;;2.60;1.73;;;;;;;-5.67;83.00;101451.44;10601589;28;20040;-75
2022/11/20 02:59:17;;;;;;;2.30;1.73;;;;;;;-5.66;83.30;101455.78;10575726;28;20501;-76
2022/11/20 03:04:19;;;;;;;2.20;1.50;;;;;;;-5.69;82.92;101460.59;10583152;28;20047;-77
2022/11/20 03:09:22;;;;;;;6.53;1.25;;;;;;;-5.72;83.14;101434.19;10588371;28;20040;-77
2022/11/20 03:14:24;;;;;;;1.15;1.05;;;;;;;-5.73;82.93;101430.66;10588791;28;20036;-77
2022/11/20 03:19:26;;;;;;;4.03;1.65;;;;;;;-5.69;83.13;101437.38;10609083;27;20039;-76
2022/11/20 03:24:28;;;;;;;3.25;2.05;;;;;;;-5.70;82.82;101445.56;10572525;28;20399;-76
2022/11/20 03:29:30;;;;;;;3.17;2.30;;;;;;;-5.75;82.70;101435.31;10607083;28;20048;-75
2022/11/20 03:34:33;;;;;;;2.10;1.60;;;;;;;-5.76;83.27;101453.19;10593043;28;20468;-75
2022/11/20 03:39:36;;;;;;;2.38;1.75;;;;;;;-5.81;82.96;101470.69;10556538;28;20044;-75
2022/11/20 03:44:39;;;;;;;3.10;1.40;;;;;;;-5.84;82.73;101434.44;10596657;28;20039;-75
2022/11/20 03:49:41;;;;;;;2.75;1.80;;;;;;;-5.78;82.54;101444.50;10578610;28;20058;-75
2022/11/20 03:54:44;;;;;;;3.33;1.65;;;;;;;-5.79;83.12;101436.63;10571121;28;20061;-75
2022/11/20 03:59:47;;;;;;;3.00;1.77;;;;;;;-5.84;82.74;101433.59;10578195;28;20036;-75
2022/11/20 04:04:49;;;;;;;2.22;1.45;;;;;;;-5.87;82.99;101418.72;10606193;28;20040;-75
2022/11/20 04:09:52;;;;;;;4.32;1.80;;;;;;;-5.85;82.98;101429.25;10628057;27;20059;-76
2022/11/20 04:14:54;;;;;;;3.78;1.35;;;;;;;-5.87;83.15;101418.72;10606968;28;20043;-75
2022/11/20 04:19:57;;;;;;;4.95;2.17;;;;;;;-5.85;83.10;101411.38;10608645;28;20072;-76
2022/11/20 04:24:59;;;;;;;5.28;2.03;;;;;;;-5.84;82.91;101410.38;10564031;28;20040;-77
2022/11/20 04:30:01;;;;;;;3.38;1.90;;;;;;;-5.81;83.45;101414.56;10595404;28;20054;-77
2022/11/20 04:35:03;;;;;;;4.18;2.58;;;;;;;-5.75;82.85;101419.28;10619090;28;20047;-77
2022/11/20 04:40:06;;;;;;;3.35;2.38;;;;;;;-5.77;83.20;101418.59;10598022;28;20061;-76
2022/11/20 04:45:09;;;;;;;4.18;2.80;;;;;;;-5.87;82.52;101412.53;10580942;28;20682;-75
2022/11/20 04:50:11;;;;;;;3.53;2.10;;;;;;;-5.91;82.74;101412.00;10553423;28;20043;-75
2022/11/20 04:55:14;;;;;;;3.53;2.40;;;;;;;-5.99;83.18;101428.00;10584180;28;20057;-76
2022/11/20 05:00:18;;;;;;;7.03;2.38;;;;;;;-6.07;84.20;101414.56;10584034;28;20053;-77
2022/11/20 05:05:26;;;;;;;3.88;2.33;;;;;;;-6.12;84.93;101414.19;10573360;28;20039;-77
2022/11/20 05:10:29;;;;;;;3.92;2.60;;;;;;;-6.17;85.75;101419.16;10581905;28;20043;-77
2022/11/20 05:15:34;;;;;;;3.20;2.42;;;;;;;-6.24;86.27;101428.78;10576081;28;20052;-76
2022/11/20 05:20:36;;;;;;;3.53;2.35;;;;;;;-6.25;86.77;101419.06;10585513;28;20055;-76
2022/11/20 05:25:38;;;;;;;5.50;3.00;;;;;;;-6.23;87.27;101417.94;10595754;28;20032;-76
2022/11/20 05:30:40;;;;;;;3.85;2.42;;;;;;;-6.21;86.84;101417.78;10616417;28;20078;-76
2022/11/20 05:35:43;;;;;;;4.95;2.25;;;;;;;-6.21;87.19;101421.28;10589160;28;20052;-75
2022/11/20 05:40:45;;;;;;;4.47;2.97;;;;;;;-6.26;87.29;101420.88;10595115;28;20413;-75
2022/11/20 05:45:54;;;;;;;3.75;2.33;;;;;;;-6.25;87.19;101419.06;10615696;28;20482;-76
2022/11/20 05:51:00;;;;;;;4.38;3.00;;;;;;;-6.28;87.15;101430.03;10587686;28;20051;-76
2022/11/20 05:56:05;;;;;;;2.60;1.70;;;;;;;-6.22;87.22;101408.94;10604159;28;20048;-75
2022/11/20 06:01:22;;;;;;;4.53;2.85;;;;;;;-6.20;86.79;101419.47;10609075;28;20051;-75
2022/11/20 06:06:25;;;;;;;4.60;2.80;;;;;;;-6.19;87.15;101431.81;10630453;27;20044;-76
2022/11/20 06:11:28;;;;;;;3.70;1.38;;;;;;;-6.14;86.22;101426.84;10578600;28;20047;-76
2022/11/20 06:16:30;;;;;;;1.13;1.00;;;;;;;-6.14;86.36;101414.34;10573424;28;20044;-76
2022/11/20 06:21:33;;;;;;;4.85;2.80;;;;;;;-6.13;86.34;101437.38;10590521;28;20062;-76
2022/11/20 06:26:35;;;;;;;4.85;2.70;;;;;;;-6.14;85.85;101421.50;10613701;28;20046;-75
2022/11/20 06:31:37;;;;;;;4.47;2.88;;;;;;;-6.18;85.47;101420.97;10613831;28;20056;-76
2022/11/20 06:36:39;;;;;;;3.47;2.22;;;;;;;-6.18;85.68;101437.00;10606656;28;20502;-76
2022/11/20 06:41:41;;;;;;;1.70;1.40;;;;;;;-6.16;86.73;101428.84;10572316;28;20032;-76
2022/11/20 06:46:44;;;;;;;3.45;1.80;;;;;;;-6.17;86.15;101430.66;10553442;28;20547;-76
2022/11/20 06:51:46;;;;;;;6.32;3.28;;;;;;;-6.16;85.92;101435.03;10590513;28;20036;-75
2022/11/20 06:56:48;;;;;;;4.50;2.78;;;;;;;-6.16;85.58;101428.84;10586882;28;20055;-76
2022/11/20 07:01:51;;;;;;;4.95;2.65;;;;;;;-6.20;84.90;101427.47;10627985;27;20047;-76
2022/11/20 07:06:53;;;;;;;2.65;1.70;;;;;;;-6.17;84.31;101424.50;10599677;28;20379;-76
2022/11/20 07:11:55;;;;;;;3.55;2.40;;;;;;;-6.11;84.92;101434.56;10570260;28;20064;-75
2022/11/20 07:16:57;;;;;;;3.85;3.00;;;;;;;-6.11;84.18;101418.53;10569787;28;20052;-77
2022/11/20 07:22:00;;;;;;;4.20;2.58;;;;;;;-6.12;84.55;101427.53;10582540;28;20043;-76
2022/11/20 07:27:02;;;;;;;3.63;2.45;;;;;;;-6.13;84.45;101433.88;10574614;28;20040;-77
2022/11/20 07:32:04;;;;;;;6.38;2.35;;;;;;;-6.15;84.54;101435.84;10568877;28;20055;-77
2022/11/20 07:37:06;;;;;;;3.97;2.45;;;;;;;-6.12;84.38;101435.53;10600885;28;20052;-76
2022/11/20 07:42:09;;;;;;;4.75;2.38;;;;;;;-6.11;83.96;101453.25;10610913;28;20059;-76
2022/11/20 07:47:13;;;;;;;2.80;1.45;;;;;;;-6.12;84.04;101444.41;10622160;27;20402;-76
2022/11/20 07:52:15;;;;;;;5.10;2.33;;;;;;;-6.07;84.71;101454.66;10591089;28;20054;-76
2022/11/20 07:57:17;;;;;;;2.28;1.60;;;;;;;-6.10;83.78;101465.63;10600601;28;20048;-76
2022/11/20 08:02:19;;;;;;;6.78;2.72;;;;;;;-6.06;83.94;101450.16;10567743;28;20040;-75
2022/11/20 08:07:21;;;;;;;5.18;2.75;;;;;;;-6.08;83.70;101461.78;10601895;28;20122;-76
2022/11/20 08:17:45;;;;;;;4.00;2.38;;;;;;;-6.14;84.11;101441.03;10614609;28;20395;-76
2022/11/20 08:22:50;;;;;;;5.50;3.05;;;;;;;-6.11;83.54;101448.75;10619790;27;20556;-74
2022/11/20 08:27:52;;;;;;;6.97;3.10;;;;;;;-6.08;83.92;101448.44;10619489;28;20044;-75
2022/11/20 08:32:55;;;;;;;4.75;2.85;;;;;;;-6.08;83.42;101448.44;10599734;28;20040;-76
2022/11/20 08:37:57;;;;;;;4.90;2.70;;;;;;;-6.02;83.52;101462.19;10581366;28;20060;-76
2022/11/20 08:43:00;;;;;;;3.63;2.17;;;;;;;-6.06;83.98;101461.66;10576631;28;20051;-76
2022/11/20 08:48:03;;;;;;;5.30;2.47;;;;;;;-6.08;83.78;101467.13;10605715;28;20046;-75
2022/11/20 08:53:05;;;;;;;5.55;3.17;;;;;;;-6.10;83.93;101461.09;10617929;28;20043;-76
2022/11/20 08:58:07;;;;;;;4.82;2.53;;;;;;;-6.10;83.79;101481.66;10615417;28;20097;-76
2022/11/20 09:03:10;;;;;;;4.97;3.00;;;;;;;-6.07;83.80;101473.34;10616394;28;20047;-76
2022/11/20 09:08:12;;;;;;;8.43;3.03;;;;;;;-6.05;84.01;101458.00;10598569;27;20397;-74
2022/11/20 09:13:14;;;;;;;6.03;3.38;;;;;;;-6.04;84.45;101470.38;10574163;28;20494;-76
2022/11/20 09:18:16;;;;;;;5.03;3.30;;;;;;;-6.02;84.15;101462.19;10610289;28;20070;-77
2022/11/20 09:23:19;;;;;;;7.80;3.13;;;;;;;-6.06;84.24;101459.00;10618128;27;20204;-76
2022/11/20 09:28:21;;;;;;;2.75;1.90;;;;;;;-6.09;84.42;101446.75;10612032;28;20051;-76
2022/11/20 09:33:23;;;;;;;5.93;3.08;;;;;;;-6.06;84.68;101445.63;10615393;28;20048;-76
2022/11/20 09:38:26;;;;;;;4.75;2.92;;;;;;;-6.05;84.80;101458.00;10576722;28;20051;-76
2022/11/20 09:43:28;;;;;;;6.13;3.67;;;;;;;-6.03;85.44;101458.69;10606115;28;20036;-76
2022/11/20 09:48:49;;;;;;;4.60;2.40;;;;;;;-6.01;85.13;101432.66;10593469;28;20055;-76
2022/11/20 09:54:10;;;;;;;5.63;3.42;;;;;;;-5.96;84.72;101429.50;10618753;27;20622;-76
2022/11/20 09:59:39;;;;;;;4.82;3.55;;;;;;;-6.00;85.04;101434.31;10600664;27;20036;-74
2022/11/20 10:04:49;;;;;;;4.88;2.75;;;;;;;-5.97;85.13;101443.88;10616075;28;20139;-76
2022/11/20 10:09:54;;;;;;;4.30;3.00;;;;;;;-5.95;84.87;101436.53;10612364;27;20063;-75
2022/11/20 10:15:06;;;;;;;5.53;3.10;;;;;;;-5.95;84.42;101442.72;10609471;28;20040;-76
2022/11/20 10:20:26;;;;;;;8.05;3.72;;;;;;;-5.97;84.54;101434.00;10614158;28;20055;-76
2022/11/20 10:25:39;;;;;;;4.25;2.38;;;;;;;-5.97;84.82;101428.66;10615386;27;20054;-79
2022/11/20 10:30:43;;;;;;;4.20;2.65;;;;;;;-5.93;84.63;101435.38;10589059;28;20055;-76
2022/11/20 10:35:50;;;;;;;4.45;2.10;;;;;;;-5.88;84.54;101433.06;10610173;28;20044;-76
2022/11/20 10:41:24;;;;;;;5.65;2.45;;;;;;;-5.83;83.96;101438.78;10589926;28;20035;-76
2022/11/20 10:46:24;;;;;;;;;;;;;;;-5.78;84.30;101438.31;10579874;28;20036;-77
2022/11/20 10:51:48;;;;;;;6.15;2.83;;;;;;;-5.80;84.12;101435.78;10608996;28;19920;-77
2022/11/20 10:56:53;;;;;;;5.20;2.45;;;;;;;-5.78;83.47;101441.81;10582312;28;20046;-76
2022/11/20 11:01:55;;;;;;;3.50;2.10;;;;;;;-5.77;83.98;101434.63;10609125;28;20035;-78
2022/11/20 11:07:20;;;;;;;4.60;2.70;;;;;;;-5.70;83.54;101437.56;10610650;28;20410;-78
2022/11/20 11:12:27;;;;;;;2.00;1.63;;;;;;;-5.72;83.55;101436.88;10585995;28;20384;-79
2022/11/20 11:17:32;;;;;;;4.93;2.22;;;;;;;-5.73;83.44;101448.53;10593856;28;20079;-77
2022/11/20 11:22:49;;;;;;;4.40;2.50;;;;;;;-5.70;83.00;101440.22;10608574;28;20036;-78
2022/11/20 11:27:52;;;;;;;4.07;2.60;;;;;;;-5.67;83.52;101434.56;10576720;28;20056;-78
2022/11/20 11:33:06;;;;;;;6.20;3.20;;;;;;;-5.65;83.24;101436.06;10611086;28;20417;-75
2022/11/20 11:38:14;;;;;;;8.13;3.78;;;;;;;-5.64;82.73;101431.56;10596892;27;20046;-77
2022/11/20 11:49:10;;;;;;;1.77;1.55;;;;;;;-5.61;83.05;101428.56;10563534;27;20040;-75
2022/11/20 11:54:30;;;;;;;4.95;3.05;;;;;;;-5.60;82.96;101435.59;10600313;28;20040;-81
2022/11/20 11:59:47;;;;;;;6.47;2.75;;;;;;;-5.60;82.57;101448.97;10561300;28;20051;-80
2022/11/20 12:04:55;;;;;;;5.38;2.65;;;;;;;-5.64;82.86;101447.59;10581095;28;20504;-77
2022/11/20 12:09:57;;;;;;;4.53;2.88;;;;;;;-5.68;83.01;101433.72;10603241;27;20038;-78
2022/11/20 12:15:11;;;;;;;3.45;1.95;;;;;;;-5.68;83.23;101433.72;10604906;28;20039;-80
2022/11/20 12:20:13;;;;;;;3.25;1.52;;;;;;;-5.67;83.60;101450.59;10564125;28;20043;-79
2022/11/20 12:25:31;;;;;;;6.63;2.55;;;;;;;-5.70;83.05;101434.88;10586430;28;20048;-80
2022/11/20 12:30:38;;;;;;;2.17;1.73;;;;;;;-5.67;83.46;101446.09;10597586;28;20047;-81
2022/11/20 12:35:56;;;;;;;4.32;3.13;;;;;;;-5.64;84.00;101439.59;10573642;28;20410;-81
2022/11/20 12:45:09;;;;;;;5.50;3.15;;;;;;;-5.63;83.71;101442.09;10602217;28;20519;-80
2022/11/20 12:47:24;;;;;;;4.20;1.50;;;;;;;-5.62;83.91;101445.63;10609154;28;20042;-80
2022/11/20 12:53:03;;;;;;;1.85;1.23;;;;;;;-5.64;83.45;101444.94;10547104;28;20415;-80
2022/11/20 12:58:22;;;;;;;2.95;1.77;;;;;;;-5.64;83.85;101447.59;10545399;28;20056;-80
2022/11/20 13:03:42;;;;;;;4.60;2.67;;;;;;;-5.63;83.81;101442.09;10612381;27;20051;-80
2022/11/20 13:08:54;;;;;;;3.28;1.60;;;;;;;-5.60;84.52;101447.13;10622881;27;20035;-80
2022/11/20 13:14:14;;;;;;;3.40;1.98;;;;;;;-5.60;84.48;101448.97;10604402;28;20059;-80
2022/11/20 13:19:17;;;;;;;5.00;2.25;;;;;;;-5.62;84.41;101459.81;10611492;27;20048;-80
2022/11/20 13:24:23;;;;;;;8.48;3.15;;;;;;;-5.64;84.54;101460.97;10589963;28;20411;-80
2022/11/20 13:29:28;;;;;;;3.65;1.98;;;;;;;-5.65;85.18;101460.13;10574632;28;20052;-83
2022/11/20 13:34:31;;;;;;;5.25;2.80;;;;;;;-5.64;84.67;101466.31;10557153;28;20054;-78
2022/11/20 13:39:34;;;;;;;6.03;3.40;;;;;;;-5.65;85.08;101472.66;10556682;28;20494;-79
2022/11/20 13:44:39;;;;;;;5.07;2.72;;;;;;;-5.67;85.20;101480.00;10574270;28;20040;-83
2022/11/20 13:49:42;;;;;;;4.13;2.15;;;;;;;-5.68;85.23;101487.19;10590053;28;20032;-78
2022/11/20 13:54:51;;;;;;;2.22;1.65;;;;;;;-5.65;85.37;101486.03;10589529;28;20044;-79
2022/11/20 13:59:57;;;;;;;1.77;0.98;;;;;;;-5.63;85.85;101489.38;10576584;28;20070;-80
2022/11/20 14:05:01;;;;;;;2.42;2.03;;;;;;;-5.66;85.81;101495.88;10572616;28;20491;-77
2022/11/20 14:10:04;;;;;;;5.15;2.65;;;;;;;-5.68;85.93;101494.38;10555758;28;20027;-78
2022/11/20 14:15:24;;;;;;;6.53;3.00;;;;;;;-5.68;86.39;101507.72;10587160;28;20067;-85
2022/11/20 14:20:29;;;;;;;6.53;3.33;;;;;;;-5.65;86.13;101502.91;10598142;28;20052;-79
2022/11/20 14:25:31;;;;;;;2.72;1.50;;;;;;;-5.65;86.35;101508.25;10593320;27;20061;-82
2022/11/20 14:30:47;;;;;;;7.95;3.60;;;;;;;-5.64;86.43;101506.44;10592117;28;20077;-84
2022/11/20 14:35:53;;;;;;;2.22;1.52;;;;;;;-5.61;86.70;101508.78;10577143;28;20036;-85
2022/11/20 14:41:06;;;;;;;4.93;2.30;;;;;;;-5.59;86.29;101510.31;10590518;28;20048;-84
2022/11/20 14:46:09;;;;;;;2.13;1.90;;;;;;;-5.58;86.37;101508.47;10591329;28;20039;-80
2022/11/20 14:51:24;;;;;;;3.50;2.25;;;;;;;-5.57;87.16;101500.28;10608620;28;20058;-77
2022/11/20 14:56:26;;;;;;;2.17;1.38;;;;;;;-5.55;87.08;101510.84;10607395;28;20070;-82
2022/11/20 15:01:32;;;;;;;3.70;2.10;;;;;;;-5.55;87.68;101505.50;10580046;28;20142;-85
2022/11/20 15:06:34;;;;;;;4.70;1.85;;;;;;;-5.21;88.37;101511.78;10587580;28;20381;-77
2022/11/20 15:11:36;;;;;;;5.57;3.20;;;;;;;-5.17;88.57;101521.16;10587183;28;20051;-81
2022/11/20 15:16:39;;;;;;;3.35;1.65;;;;;;;-5.14;88.74;101511.97;10613088;28;20485;-81
2022/11/20 15:21:41;;;;;;;4.03;2.75;;;;;;;-5.11;88.84;101510.81;10612294;28;20031;-79
2022/11/20 15:26:43;;;;;;;3.13;2.00;;;;;;;-5.13;89.25;101510.97;10596904;27;20035;-81
2022/11/20 15:31:45;;;;;;;5.40;2.13;;;;;;;-5.10;89.39;101513.34;10600695;27;20047;-83
2022/11/20 15:36:48;;;;;;;8.02;3.97;;;;;;;-5.15;89.55;101512.97;10575497;28;20058;-80
2022/11/20 15:41:50;;;;;;;10.63;2.88;;;;;;;-5.19;89.32;101523.16;10603381;28;20402;-82
2022/11/20 15:46:52;;;;;;;5.20;1.80;;;;;;;-5.17;89.91;101531.88;10566323;28;20036;-86
2022/11/20 15:51:54;;;;;;;10.35;4.00;;;;;;;-5.26;89.92;101531.94;10582361;28;20042;-79
2022/11/20 15:56:58;;;;;;;7.80;3.80;;;;;;;-5.27;89.70;101538.31;10590256;28;20054;-79
2022/11/20 16:02:00;;;;;;;2.67;1.90;;;;;;;-5.20;89.65;101534.88;10581125;28;20036;-78
2022/11/20 16:07:06;;;;;;;5.15;2.58;;;;;;;-5.28;89.82;101537.47;10624267;28;20414;-77
2022/11/20 16:15:44;;;;;;;4.75;1.98;;;;;;;-5.35;90.06;101536.41;10609158;28;20522;-79
2022/11/20 16:17:42;;;;;;;4.53;2.35;;;;;;;-5.35;90.53;101539.09;10604527;28;20040;-78
2022/11/20 16:22:45;;;;;;;2.97;2.10;;;;;;;-5.19;89.74;101538.38;10602416;28;20053;-78
2022/11/20 16:27:47;;;;;;;9.32;3.97;;;;;;;-5.07;89.76;101546.97;10581361;28;20510;-79
2022/11/20 16:32:49;;;;;;;5.35;2.97;;;;;;;-5.08;90.72;101548.81;10593675;28;20036;-80
2022/11/20 16:37:52;;;;;;;9.32;3.40;;;;;;;-5.05;90.55;101537.78;10590671;28;20039;-81
2022/11/20 16:42:54;;;;;;;3.42;2.78;;;;;;;-5.03;90.06;101549.19;10613652;27;20035;-81
2022/11/20 16:47:57;;;;;;;2.72;1.63;;;;;;;-5.10;90.48;101547.28;10631292;27;20051;-82
2022/11/20 16:52:59;;;;;;;7.25;2.83;;;;;;;-5.11;90.61;101543.78;10613116;27;20667;-82
2022/11/20 16:58:01;;;;;;;6.00;3.33;;;;;;;-5.08;90.26;101545.28;10651518;27;20532;-79
2022/11/20 17:03:04;;;;;;;11.25;4.78;;;;;;;-5.07;90.28;101545.13;10613690;27;20024;-78
2022/11/20 17:08:07;;;;;;;10.57;4.40;;;;;;;-5.02;90.08;101552.72;10609904;27;20051;-78
2022/11/20 17:13:09;;;;;;;7.60;4.03;;;;;;;-4.93;89.92;101555.25;10624696;27;20040;-78
2022/11/20 17:18:12;;;;;;;9.10;4.60;;;;;;;-4.88;90.36;101546.75;10629321;27;20054;-78
2022/11/20 17:23:14;;;;;;;9.80;4.05;;;;;;;-4.83;90.17;101555.16;10611213;27;20046;-77
2022/11/20 17:28:16;;;;;;;8.43;4.60;;;;;;;-4.77;90.35;101562.56;10588402;27;20048;-78
2022/11/20 17:33:19;;;;;;;6.32;3.92;;;;;;;-4.67;90.39;101562.44;10612654;28;20137;-80
2022/11/20 17:38:21;;;;;;;11.05;5.40;;;;;;;-4.65;89.81;101572.00;10611286;28;20051;-78
2022/11/20 17:43:23;;;;;;;9.38;4.70;;;;;;;-4.60;90.24;101580.38;10600563;28;20510;-77
2022/11/20 17:48:27;;;;;;;11.00;5.20;;;;;;;-4.24;90.05;101588.25;10612150;27;20047;-78
2022/11/20 17:53:43;;;;;;;9.05;4.07;;;;;;;-4.35;89.89;101586.69;10610216;27;20031;-82
2022/11/20 17:59:06;;;;;;;8.90;5.07;;;;;;;-4.46;89.66;101591.50;10623509;28;20043;-81
2022/11/20 18:04:23;;;;;;;9.75;4.85;;;;;;;-4.61;89.82;101597.47;10599560;27;20052;-81
2022/11/20 18:09:55;;;;;;;8.02;4.60;;;;;;;-4.44;89.17;101600.22;10627418;27;20044;-80
2022/11/20 18:14:57;;;;;;;11.25;4.95;;;;;;;-4.34;89.10;101611.66;10606135;28;20041;-79
2022/11/20 18:20:00;;;;;;;7.72;3.60;;;;;;;-4.40;89.40;101604.25;10627561;27;20055;-80
2022/11/20 18:25:03;;;;;;;6.28;3.90;;;;;;;-4.55;89.80;101604.84;10632150;27;20138;-77
2022/11/20 18:30:05;;;;;;;10.02;4.75;;;;;;;-4.45;89.65;101601.22;10597565;27;20043;-79
2022/11/20 18:35:08;;;;;;;10.90;4.88;;;;;;;-3.99;89.06;101614.16;10601332;28;20392;-77
2022/11/20 18:40:10;;;;;;;9.32;4.40;;;;;;;-3.77;89.09;101614.56;10597918;28;20040;-78
2022/11/20 18:45:13;;;;;;;9.50;4.68;;;;;;;-3.75;88.84;101609.88;10631123;27;20043;-78
2022/11/20 18:50:16;;;;;;;8.60;4.68;;;;;;;-3.73;88.08;101613.22;10594953;28;20032;-78
2022/11/20 18:55:18;;;;;;;8.55;4.20;;;;;;;-3.70;86.99;101615.56;10596867;27;20044;-78
2022/11/20 19:00:21;;;;;;;7.75;3.90;;;;;;;-3.20;85.45;101625.38;10613532;28;20062;-79
2022/11/20 19:05:25;;;;;;;10.50;4.30;;;;;;;-3.36;83.79;101637.78;10580709;27;20410;-76
2022/11/20 19:10:28;;;;;;;4.70;2.88;;;;;;;-3.54;83.12;101623.66;10613371;27;20526;-76
2022/11/20 19:15:31;;;;;;;5.47;3.25;;;;;;;-3.14;81.81;101630.06;10605632;28;20047;-77
2022/11/20 19:20:34;;;;;;;6.45;3.28;;;;;;;-3.04;80.82;101633.44;10630571;27;20587;-78
2022/11/20 19:25:36;;;;;;;7.03;3.42;;;;;;;-3.20;80.29;101636.13;10593497;28;20379;-75
2022/11/20 19:30:40;;;;;;;4.55;2.50;;;;;;;-3.27;79.15;101635.94;10581443;28;20043;-77
2022/11/20 19:35:42;;;;;;;6.22;3.50;;;;;;;-3.08;78.45;101642.84;10610238;28;20040;-76
2022/11/20 19:40:45;;;;;;;4.47;2.72;;;;;;;-3.00;77.46;101647.34;10578905;28;20044;-77
2022/11/20 19:45:47;;;;;;;6.68;3.42;;;;;;;-3.28;78.87;101652.22;10620647;27;20046;-78
2022/11/20 19:50:50;;;;;;;5.55;3.33;;;;;;;-3.40;78.65;101660.59;10618609;27;20044;-77
2022/11/20 19:55:56;;;;;;;5.93;3.47;;;;;;;-3.12;78.35;101663.81;10609685;28;20493;-77
2022/11/20 20:01:07;;;;;;;5.30;3.00;;;;;;;-2.92;77.57;101663.50;10594232;28;20031;-78
2022/11/20 20:06:12;;;;;;;7.32;3.15;;;;;;;-2.56;76.12;101655.91;10588567;28;20032;-77
2022/11/20 20:11:17;;;;;;;5.03;3.20;;;;;;;-2.94;75.49;101677.09;10595608;28;20076;-77
2022/11/20 20:16:26;;;;;;;4.47;3.33;;;;;;;-3.13;74.95;101663.97;10613005;28;20050;-78
2022/11/20 20:21:32;;;;;;;3.65;2.88;;;;;;;-3.44;75.48;101674.50;10626437;28;20066;-79
2022/11/20 20:26:35;;;;;;;5.88;3.25;;;;;;;-3.58;75.76;101677.81;10594939;28;20529;-77
2022/11/20 20:31:38;;;;;;;7.25;3.33;;;;;;;-3.70;75.39;101686.16;10610432;28;20050;-76
2022/11/20 20:36:41;;;;;;;5.80;3.38;;;;;;;-3.82;75.14;101686.59;10597960;28;20516;-76
2022/11/20 20:41:43;;;;;;;3.47;2.67;;;;;;;-3.97;75.55;101694.44;10598677;28;20036;-75
2022/11/20 20:46:45;;;;;;;2.88;1.70;;;;;;;-4.09;75.29;101688.50;10598233;28;20036;-74
2022/11/20 20:51:47;;;;;;;3.47;3.10;;;;;;;-3.98;75.82;101690.91;10606961;28;20036;-76
2022/11/20 20:56:50;;;;;;;4.78;2.67;;;;;;;-3.92;75.24;101691.25;10583414;28;20047;-76
2022/11/20 21:01:52;;;;;;;3.65;2.63;;;;;;;-3.50;74.48;101694.75;10597613;28;20032;-76
2022/11/20 21:07:00;;;;;;;3.33;2.70;;;;;;;-3.40;73.28;101687.41;10595412;28;20036;-77
2022/11/20 21:12:03;;;;;;;3.90;2.72;;;;;;;-3.28;72.89;101684.44;10605719;28;20317;-77
2022/11/20 21:17:09;;;;;;;4.15;3.08;;;;;;;-3.14;73.14;101686.44;10597121;28;20054;-77
2022/11/20 21:22:12;;;;;;;4.93;2.75;;;;;;;-3.36;72.38;101683.38;10600169;28;20036;-77
2022/11/20 21:27:21;;;;;;;5.90;3.03;;;;;;;-3.61;72.43;101688.88;10602870;27;20514;-77
2022/11/20 21:32:23;;;;;;;3.47;2.78;;;;;;;-3.63;72.57;101681.00;10617139;27;20051;-77
2022/11/20 21:37:25;;;;;;;4.65;2.85;;;;;;;-3.50;72.64;101677.81;10592834;28;20073;-75
2022/11/20 21:42:28;;;;;;;4.45;3.20;;;;;;;-3.44;73.00;101685.22;10611069;28;20043;-78
2022/11/20 21:47:33;;;;;;;5.13;3.35;;;;;;;-3.43;72.85;101686.91;10577997;28;20085;-78
2022/11/20 21:52:36;;;;;;;4.45;3.05;;;;;;;-3.98;72.09;101684.72;10585898;28;20042;-78
2022/11/20 21:57:38;;;;;;;5.22;3.05;;;;;;;-4.03;72.92;101695.88;10607357;28;20038;-78
2022/11/20 22:02:41;;;;;;;5.22;2.92;;;;;;;-4.26;73.00;101694.78;10605955;28;20048;-78
2022/11/20 22:07:43;;;;;;;5.32;3.10;;;;;;;-3.84;73.14;101700.16;10619826;28;20514;-78
2022/11/20 22:12:46;;;;;;;4.80;3.58;;;;;;;-3.79;72.81;101702.38;10592723;28;20044;-78
2022/11/20 22:23:09;;;;;;;4.45;3.15;;;;;;;-4.08;72.35;101694.69;10593776;28;20043;-78
2022/11/20 22:28:11;;;;;;;5.10;3.45;;;;;;;-3.83;72.73;101703.69;10605836;28;20047;-78
2022/11/20 22:33:14;;;;;;;4.97;3.45;;;;;;;-3.83;71.99;101703.69;10601211;28;20035;-77
2022/11/20 22:38:16;;;;;;;4.50;3.10;;;;;;;-3.84;72.74;101702.84;10590380;28;20044;-75
2022/11/20 22:43:18;;;;;;;4.40;3.22;;;;;;;-3.91;72.17;101709.88;10594403;28;20401;-77
2022/11/20 22:48:21;;;;;;;6.30;3.67;;;;;;;-4.01;72.78;101709.97;10604059;27;20055;-78
2022/11/20 22:53:23;;;;;;;6.78;3.20;;;;;;;-3.79;72.19;101723.84;10593840;28;20070;-77
2022/11/20 22:58:30;;;;;;;5.28;3.63;;;;;;;-3.92;71.55;101734.16;10618401;28;20055;-77
2022/11/20 23:03:32;;;;;;;6.65;3.53;;;;;;;-4.09;71.73;101734.06;10601111;27;21234;-76
2022/11/20 23:08:35;;;;;;;5.28;2.97;;;;;;;-4.38;71.93;101745.09;10601623;28;20409;-76
2022/11/20 23:19:09;;;;;;;5.28;2.85;;;;;;;-4.32;71.84;101740.97;10583816;27;20043;-76
2022/11/20 23:24:11;;;;;;;5.07;2.92;;;;;;;-4.10;71.30;101744.94;10585274;27;20413;-77
2022/11/20 23:29:13;;;;;;;4.93;3.00;;;;;;;-4.21;71.58;101735.31;10591583;27;20036;-75
2022/11/20 23:34:16;;;;;;;3.28;2.65;;;;;;;-4.16;70.99;101726.84;10585549;27;20043;-77
2022/11/20 23:39:18;;;;;;;5.97;3.33;;;;;;;-4.28;71.21;101745.00;10582623;28;20521;-75
2022/11/20 23:44:24;;;;;;;3.30;2.53;;;;;;;-4.46;70.50;101730.81;10583851;28;20048;-76